createdAt,value
2023-02-02T00:00:16.310Z,3
2023-02-02T00:01:16.305Z,3
2023-02-02T00:02:16.333Z,3
2023-02-02T00:03:16.347Z,3
2023-02-02T00:04:16.371Z,3
2023-02-02T00:05:16.323Z,3
2023-02-02T00:06:16.350Z,4
2023-02-02T00:07:16.359Z,4
2023-02-02T00:08:16.310Z,4
2023-02-02T00:09:16.306Z,4
2023-02-02T00:10:16.316Z,4
2023-02-02T00:12:16.322Z,5
2023-02-02T00:13:16.317Z,4
2023-02-02T00:14:16.324Z,5
2023-02-02T00:15:16.356Z,5
2023-02-02T00:16:16.440Z,5
2023-02-02T00:17:16.321Z,5
2023-02-02T00:18:16.406Z,5
2023-02-02T00:20:16.313Z,5
2023-02-02T00:21:16.325Z,4
2023-02-02T00:22:16.308Z,4
2023-02-02T00:23:16.337Z,4
2023-02-02T00:25:16.339Z,4
2023-02-02T00:26:16.338Z,4
2023-02-02T00:27:16.338Z,4
2023-02-02T00:28:16.314Z,3
2023-02-02T00:29:16.314Z,3
2023-02-02T00:30:16.323Z,3
2023-02-02T00:31:16.416Z,3
2023-02-02T00:32:16.316Z,3
2023-02-02T00:33:16.310Z,3
2023-02-02T00:35:16.325Z,3
2023-02-02T00:36:16.324Z,3
2023-02-02T00:37:16.316Z,3
2023-02-02T00:39:16.319Z,3
2023-02-02T00:40:16.320Z,3
2023-02-02T00:41:16.342Z,3
2023-02-02T00:42:16.324Z,3
2023-02-02T00:43:16.343Z,3
2023-02-02T00:44:16.348Z,3
2023-02-02T00:45:16.369Z,3
2023-02-02T00:46:16.317Z,3
2023-02-02T00:47:16.589Z,3
2023-02-02T00:48:16.321Z,2
2023-02-02T00:49:16.353Z,3
2023-02-02T00:50:16.310Z,3
2023-02-02T00:51:16.316Z,2
2023-02-02T00:52:16.481Z,2
2023-02-02T00:53:16.319Z,3
2023-02-02T00:54:16.312Z,3
2023-02-02T00:56:16.319Z,3
2023-02-02T00:58:16.316Z,3
2023-02-02T00:59:16.319Z,3
2023-02-02T01:00:16.331Z,3
2023-02-02T01:01:16.423Z,3
2023-02-02T01:02:16.366Z,3
2023-02-02T01:04:16.401Z,3
2023-02-02T01:05:16.336Z,3
2023-02-02T01:06:16.309Z,3
2023-02-02T01:07:16.326Z,3
2023-02-02T01:08:16.313Z,3
2023-02-02T01:10:16.313Z,3
2023-02-02T01:11:16.324Z,3
2023-02-02T01:12:16.323Z,3
2023-02-02T01:13:16.341Z,3
2023-02-02T01:15:16.312Z,3
2023-02-02T01:16:16.367Z,3
2023-02-02T01:17:16.344Z,3
2023-02-02T01:18:16.366Z,3
2023-02-02T01:19:16.317Z,3
2023-02-02T01:20:16.346Z,3
2023-02-02T01:21:16.316Z,3
2023-02-02T01:23:16.349Z,3
2023-02-02T01:24:16.318Z,3
2023-02-02T01:25:16.383Z,3
2023-02-02T01:26:16.399Z,4
2023-02-02T01:27:16.315Z,4
2023-02-02T01:28:16.325Z,4
2023-02-02T01:29:16.329Z,3
2023-02-02T01:30:16.323Z,4
2023-02-02T01:31:16.321Z,4
2023-02-02T01:32:16.347Z,4
2023-02-02T01:33:16.317Z,4
2023-02-02T01:34:16.318Z,4
2023-02-02T01:35:16.326Z,4
2023-02-02T01:36:16.339Z,4
2023-02-02T01:37:16.325Z,4
2023-02-02T01:39:16.321Z,4
2023-02-02T01:40:16.321Z,4
2023-02-02T01:41:16.342Z,4
2023-02-02T01:42:16.324Z,6
2023-02-02T01:43:16.319Z,4
2023-02-02T01:44:16.318Z,5
2023-02-02T01:45:16.319Z,5
2023-02-02T01:46:16.378Z,5
2023-02-02T01:47:16.327Z,5
2023-02-02T01:48:16.333Z,6
2023-02-02T01:49:16.324Z,5
2023-02-02T01:50:16.318Z,5
2023-02-02T01:51:16.358Z,6
2023-02-02T01:52:16.311Z,6
2023-02-02T01:53:16.321Z,6
2023-02-02T01:54:16.315Z,6
2023-02-02T01:55:16.310Z,6
2023-02-02T01:56:16.324Z,7
2023-02-02T01:57:16.307Z,6
2023-02-02T01:58:16.321Z,7
2023-02-02T01:59:16.331Z,6
2023-02-02T02:00:16.328Z,6
2023-02-02T02:01:16.372Z,7
2023-02-02T02:02:16.425Z,6
2023-02-02T02:03:16.293Z,7
2023-02-02T02:04:16.328Z,7
2023-02-02T02:05:16.338Z,6
2023-02-02T02:06:16.367Z,7
2023-02-02T02:07:16.326Z,7
2023-02-02T02:08:16.344Z,6
2023-02-02T02:09:16.362Z,6
2023-02-02T02:10:16.321Z,7
2023-02-02T02:11:16.321Z,8
2023-02-02T02:12:16.323Z,7
2023-02-02T02:13:16.347Z,7
2023-02-02T02:14:16.323Z,7
2023-02-02T02:15:16.326Z,8
2023-02-02T02:16:16.465Z,7
2023-02-02T02:17:16.323Z,8
2023-02-02T02:19:16.315Z,8
2023-02-02T02:20:16.329Z,8
2023-02-02T02:21:16.322Z,6
2023-02-02T02:22:16.338Z,7
2023-02-02T02:23:16.337Z,7
2023-02-02T02:24:16.338Z,6
2023-02-02T02:25:16.315Z,8
2023-02-02T02:26:16.329Z,7
2023-02-02T02:27:16.318Z,7
2023-02-02T02:28:16.401Z,7
2023-02-02T02:29:16.310Z,7
2023-02-02T02:30:16.319Z,7
2023-02-02T02:31:16.419Z,7
2023-02-02T02:32:16.318Z,6
2023-02-02T02:33:16.324Z,6
2023-02-02T02:34:16.321Z,6
2023-02-02T02:35:16.344Z,6
2023-02-02T02:36:16.333Z,6
2023-02-02T02:37:16.317Z,7
2023-02-02T02:39:16.314Z,6
2023-02-02T02:40:16.319Z,7
2023-02-02T02:41:16.328Z,6
2023-02-02T02:42:16.330Z,6
2023-02-02T02:43:16.334Z,5
2023-02-02T02:44:16.331Z,6
2023-02-02T02:45:16.312Z,6
2023-02-02T02:46:16.432Z,6
2023-02-02T02:47:16.317Z,6
2023-02-02T02:48:16.327Z,6
2023-02-02T02:49:16.316Z,6
2023-02-02T02:50:16.321Z,6
2023-02-02T02:51:16.392Z,6
2023-02-02T02:52:16.319Z,6
2023-02-02T02:53:16.355Z,5
2023-02-02T02:54:16.315Z,5
2023-02-02T02:55:16.414Z,5
2023-02-02T02:56:16.337Z,4
2023-02-02T02:57:16.317Z,5
2023-02-02T02:58:16.398Z,5
2023-02-02T02:59:16.310Z,4
2023-02-02T03:00:16.333Z,4
2023-02-02T03:01:16.343Z,4
2023-02-02T03:02:16.363Z,4
2023-02-02T03:03:16.334Z,3
2023-02-02T03:04:16.325Z,3
2023-02-02T03:05:16.323Z,3
2023-02-02T03:06:16.324Z,3
2023-02-02T03:07:16.357Z,3
2023-02-02T03:09:16.322Z,3
2023-02-02T03:10:16.323Z,3
2023-02-02T03:11:16.321Z,3
2023-02-02T03:12:16.320Z,3
2023-02-02T03:13:16.329Z,4
2023-02-02T03:14:16.361Z,4
2023-02-02T03:15:16.391Z,4
2023-02-02T03:16:16.318Z,4
2023-02-02T03:17:16.311Z,4
2023-02-02T03:18:16.308Z,4
2023-02-02T03:19:16.306Z,4
2023-02-02T03:20:16.304Z,4
2023-02-02T03:21:16.314Z,4
2023-02-02T03:22:16.316Z,4
2023-02-02T03:23:16.300Z,4
2023-02-02T03:24:16.356Z,4
2023-02-02T03:25:16.300Z,4
2023-02-02T03:26:16.374Z,4
2023-02-02T03:27:16.297Z,4
2023-02-02T03:28:16.304Z,4
2023-02-02T03:29:16.297Z,4
2023-02-02T03:30:16.308Z,4
2023-02-02T03:31:16.354Z,5
2023-02-02T03:32:16.302Z,4
2023-02-02T03:33:16.305Z,4
2023-02-02T03:34:16.331Z,5
2023-02-02T03:35:16.305Z,5
2023-02-02T03:36:16.307Z,4
2023-02-02T03:37:16.304Z,5
2023-02-02T03:39:16.308Z,5
2023-02-02T03:40:16.323Z,5
2023-02-02T03:41:16.311Z,6
2023-02-02T03:42:16.324Z,6
2023-02-02T03:43:16.332Z,6
2023-02-02T03:44:16.330Z,5
2023-02-02T03:45:16.328Z,6
2023-02-02T03:46:16.345Z,5
2023-02-02T03:47:16.317Z,6
2023-02-02T03:48:16.337Z,5
2023-02-02T03:49:16.323Z,6
2023-02-02T03:50:16.323Z,5
2023-02-02T03:51:16.324Z,5
2023-02-02T03:52:16.320Z,6
2023-02-02T03:53:16.328Z,5
2023-02-02T03:54:16.387Z,5
2023-02-02T03:55:16.358Z,5
2023-02-02T03:56:16.339Z,5
2023-02-02T03:57:16.337Z,5
2023-02-02T03:58:16.327Z,5
2023-02-02T03:59:16.317Z,5
2023-02-02T04:00:16.321Z,6
2023-02-02T04:01:16.327Z,15
2023-02-02T04:02:16.317Z,22
2023-02-02T04:03:16.321Z,6
2023-02-02T04:04:16.334Z,13
2023-02-02T04:05:16.362Z,26
2023-02-02T04:06:16.343Z,16
2023-02-02T04:07:16.323Z,7
2023-02-02T04:08:16.330Z,5
2023-02-02T04:09:16.323Z,4
2023-02-02T04:10:16.355Z,4
2023-02-02T04:11:16.335Z,4
2023-02-02T04:12:16.320Z,5
2023-02-02T04:13:16.350Z,5
2023-02-02T04:14:16.329Z,5
2023-02-02T04:15:16.407Z,5
2023-02-02T04:16:16.445Z,5
2023-02-02T04:18:16.334Z,6
2023-02-02T04:19:16.331Z,6
2023-02-02T04:20:16.333Z,6
2023-02-02T04:21:16.357Z,7
2023-02-02T04:22:16.347Z,7
2023-02-02T04:23:16.331Z,7
2023-02-02T04:24:16.329Z,7
2023-02-02T04:25:16.348Z,7
2023-02-02T04:26:16.471Z,7
2023-02-02T04:27:16.339Z,8
2023-02-02T04:28:16.328Z,8
2023-02-02T04:29:16.357Z,8
2023-02-02T04:30:16.326Z,8
2023-02-02T04:31:16.438Z,8
2023-02-02T04:34:16.329Z,9
2023-02-02T04:35:16.331Z,16
2023-02-02T04:36:16.328Z,16
2023-02-02T04:38:16.338Z,23
2023-02-02T04:39:16.322Z,15
2023-02-02T04:41:44.551Z,9
2023-02-02T04:45:27.267Z,9
2023-02-02T04:48:34.130Z,9
2023-02-02T04:49:16.359Z,9
2023-02-02T04:50:16.336Z,9
2023-02-02T04:51:16.337Z,8
2023-02-02T04:52:16.340Z,9
2023-02-02T04:55:03.064Z,9
2023-02-02T04:58:47.451Z,8
2023-02-02T04:59:42.987Z,19
2023-02-02T05:02:16.322Z,9
2023-02-02T05:03:16.332Z,8
2023-02-02T05:04:16.377Z,8
2023-02-02T05:06:16.339Z,8
2023-02-02T05:07:16.330Z,7
2023-02-02T05:09:44.533Z,7
2023-02-02T05:13:26.830Z,7
2023-02-02T05:16:16.397Z,7
2023-02-02T05:17:16.312Z,8
2023-02-02T05:18:16.320Z,7
2023-02-02T05:20:16.316Z,7
2023-02-02T05:21:16.317Z,7
2023-02-02T05:23:44.553Z,14
2023-02-02T05:27:26.839Z,16
2023-02-02T05:28:05.949Z,11
2023-02-02T05:28:42.980Z,7
2023-02-02T05:30:16.328Z,6
2023-02-02T05:31:16.479Z,7
2023-02-02T05:32:16.340Z,6
2023-02-02T05:34:16.323Z,7
2023-02-02T05:35:16.328Z,7
2023-02-02T05:36:16.321Z,7
2023-02-02T05:38:16.338Z,7
2023-02-02T05:39:16.329Z,6
2023-02-02T05:40:16.326Z,6
2023-02-02T05:42:16.338Z,8
2023-02-02T05:43:16.351Z,7
2023-02-02T05:45:44.544Z,8
2023-02-02T05:49:26.832Z,7
2023-02-02T05:52:16.331Z,6
2023-02-02T05:53:16.339Z,7
2023-02-02T05:54:16.321Z,7
2023-02-02T05:55:16.359Z,7
2023-02-02T05:56:16.532Z,6
2023-02-02T05:57:16.330Z,7
2023-02-02T05:58:16.323Z,7
2023-02-02T06:01:16.341Z,7
2023-02-02T06:02:16.329Z,7
2023-02-02T06:03:16.411Z,7
2023-02-02T06:04:16.357Z,7
2023-02-02T06:05:16.335Z,7
2023-02-02T06:07:16.317Z,7
2023-02-02T06:08:16.337Z,7
2023-02-02T06:09:16.345Z,7
2023-02-02T06:10:16.329Z,6
2023-02-02T06:12:16.329Z,6
2023-02-02T06:14:44.525Z,7
2023-02-02T06:16:56.274Z,6
2023-02-02T06:19:24.451Z,6
2023-02-02T06:20:03.573Z,8
2023-02-02T06:20:40.596Z,8
2023-02-02T06:21:17.639Z,8
2023-02-02T06:22:16.326Z,8
2023-02-02T06:23:16.329Z,8
2023-02-02T06:24:16.329Z,8
2023-02-02T06:25:16.339Z,8
2023-02-02T06:26:16.358Z,7
2023-02-02T06:27:16.330Z,7
2023-02-02T06:28:16.343Z,7
2023-02-02T06:29:16.360Z,8
2023-02-02T06:30:16.329Z,8
2023-02-02T06:31:16.429Z,7
2023-02-02T06:32:16.333Z,7
2023-02-02T06:33:16.330Z,7
2023-02-02T06:34:16.325Z,7
2023-02-02T06:35:16.360Z,8
2023-02-02T06:36:16.327Z,7
2023-02-02T06:37:16.342Z,7
2023-02-02T06:38:16.334Z,7
2023-02-02T06:39:16.332Z,7
2023-02-02T06:40:16.356Z,8
2023-02-02T06:41:16.335Z,6
2023-02-02T06:43:16.328Z,7
2023-02-02T06:44:16.326Z,8
2023-02-02T06:45:16.329Z,8
2023-02-02T06:46:16.355Z,7
2023-02-02T06:47:16.330Z,7
2023-02-02T06:48:16.332Z,7
2023-02-02T06:49:16.386Z,7
2023-02-02T06:50:16.343Z,7
2023-02-02T06:51:16.327Z,7
2023-02-02T06:52:16.332Z,8
2023-02-02T06:53:16.309Z,7
2023-02-02T06:54:16.343Z,8
2023-02-02T06:55:16.339Z,8
2023-02-02T06:56:16.335Z,8
2023-02-02T06:57:16.335Z,8
2023-02-02T06:58:16.343Z,7
2023-02-02T06:59:16.343Z,7
2023-02-02T07:00:16.348Z,7
2023-02-02T07:01:16.367Z,7
2023-02-02T07:03:16.350Z,8
2023-02-02T07:04:16.335Z,7
2023-02-02T07:05:16.345Z,7
2023-02-02T07:06:16.329Z,7
2023-02-02T07:07:16.369Z,8
2023-02-02T07:08:16.328Z,7
2023-02-02T07:11:14.155Z,7
2023-02-02T07:11:16.875Z,8
2023-02-02T07:12:16.416Z,8
2023-02-02T07:13:16.335Z,8
2023-02-02T07:14:16.333Z,8
2023-02-02T07:15:16.336Z,8
2023-02-02T07:16:16.380Z,8
2023-02-02T07:17:16.334Z,8
2023-02-02T07:18:16.332Z,9
2023-02-02T07:19:16.365Z,8
2023-02-02T07:20:16.336Z,8
2023-02-02T07:21:16.335Z,8
2023-02-02T07:22:16.360Z,8
2023-02-02T07:23:16.340Z,8
2023-02-02T07:24:16.338Z,10
2023-02-02T07:25:16.314Z,8
2023-02-02T07:26:16.411Z,8
2023-02-02T07:27:16.342Z,8
2023-02-02T07:28:16.337Z,9
2023-02-02T07:29:16.358Z,9
2023-02-02T07:30:16.354Z,8
2023-02-02T07:31:16.507Z,9
2023-02-02T07:32:16.331Z,8
2023-02-02T07:35:16.351Z,9
2023-02-02T07:37:16.332Z,9
2023-02-02T07:38:16.347Z,9
2023-02-02T07:39:16.333Z,10
2023-02-02T07:40:16.331Z,9
2023-02-02T07:41:16.327Z,9
2023-02-02T07:42:16.360Z,9
2023-02-02T07:43:16.337Z,10
2023-02-02T07:44:16.332Z,9
2023-02-02T07:45:26.868Z,9
2023-02-02T07:46:16.416Z,9
2023-02-02T07:47:16.349Z,9
2023-02-02T07:48:16.349Z,9
2023-02-02T07:49:16.336Z,9
2023-02-02T07:50:16.339Z,10
2023-02-02T07:51:16.338Z,9
2023-02-02T07:52:16.324Z,9
2023-02-02T07:53:16.341Z,9
2023-02-02T07:54:16.395Z,9
2023-02-02T07:55:16.328Z,9
2023-02-02T07:56:16.344Z,9
2023-02-02T07:57:16.369Z,9
2023-02-02T07:58:16.333Z,9
2023-02-02T07:59:16.327Z,10
2023-02-02T08:00:16.326Z,10
2023-02-02T08:01:16.338Z,11
2023-02-02T08:03:16.407Z,11
2023-02-02T08:04:16.332Z,10
2023-02-02T08:05:16.353Z,10
2023-02-02T08:06:16.351Z,10
2023-02-02T08:08:16.331Z,10
2023-02-02T08:10:16.341Z,10
2023-02-02T08:11:16.334Z,10
2023-02-02T08:12:16.324Z,10
2023-02-02T08:13:16.333Z,10
2023-02-02T08:14:16.347Z,10
2023-02-02T08:16:16.488Z,10
2023-02-02T08:17:16.346Z,10
2023-02-02T08:18:16.356Z,12
2023-02-02T08:19:16.379Z,10
2023-02-02T08:20:16.334Z,11
2023-02-02T08:21:16.367Z,10
2023-02-02T08:22:16.343Z,10
2023-02-02T08:23:16.340Z,11
2023-02-02T08:24:16.331Z,10
2023-02-02T08:25:16.342Z,11
2023-02-02T08:26:16.331Z,10
2023-02-02T08:29:16.331Z,10
2023-02-02T08:30:16.334Z,10
2023-02-02T08:31:16.467Z,10
2023-02-02T08:32:16.341Z,10
2023-02-02T08:33:16.348Z,10
2023-02-02T08:34:16.377Z,10
2023-02-02T08:35:16.348Z,10
2023-02-02T08:37:16.353Z,10
2023-02-02T08:38:16.334Z,10
2023-02-02T08:39:16.341Z,9
2023-02-02T08:40:16.423Z,10
2023-02-02T08:41:16.335Z,10
2023-02-02T08:42:16.347Z,10
2023-02-02T08:43:34.925Z,10
2023-02-02T08:46:07.791Z,10
2023-02-02T08:49:26.874Z,10
2023-02-02T08:52:16.329Z,10
2023-02-02T08:53:16.330Z,12
2023-02-02T08:54:16.381Z,13
2023-02-02T08:55:16.328Z,16
2023-02-02T08:56:16.341Z,16
2023-02-02T08:57:16.325Z,23
2023-02-02T08:58:16.331Z,27
2023-02-02T08:59:16.333Z,11
2023-02-02T09:00:16.324Z,11
2023-02-02T09:01:16.455Z,9
2023-02-02T09:02:16.409Z,10
2023-02-02T09:03:16.336Z,10
2023-02-02T09:04:16.339Z,10
2023-02-02T09:05:16.340Z,10
2023-02-02T09:06:16.344Z,10
2023-02-02T09:07:16.363Z,10
2023-02-02T09:08:16.349Z,9
2023-02-02T09:09:16.331Z,10
2023-02-02T09:10:16.347Z,10
2023-02-02T09:11:16.358Z,10
2023-02-02T09:12:16.332Z,11
2023-02-02T09:13:16.337Z,15
2023-02-02T09:14:16.331Z,22
2023-02-02T09:15:16.408Z,24
2023-02-02T09:16:16.396Z,20
2023-02-02T09:17:16.329Z,11
2023-02-02T09:18:16.332Z,11
2023-02-02T09:19:16.330Z,10
2023-02-02T09:20:16.355Z,11
2023-02-02T09:22:16.335Z,10
2023-02-02T09:23:16.334Z,10
2023-02-02T09:24:16.338Z,10
2023-02-02T09:25:16.342Z,10
2023-02-02T09:27:44.535Z,10
2023-02-02T09:29:17.158Z,9
2023-02-02T09:29:35.688Z,10
2023-02-02T09:31:49.588Z,10
2023-02-02T09:32:26.506Z,10
2023-02-02T09:33:16.339Z,9
2023-02-02T09:34:16.367Z,9
2023-02-02T09:36:16.339Z,9
2023-02-02T09:37:16.360Z,9
2023-02-02T09:38:16.332Z,9
2023-02-02T09:39:16.347Z,10
2023-02-02T09:40:33.626Z,9
2023-02-02T09:42:16.351Z,9
2023-02-02T09:43:16.337Z,10
2023-02-02T09:44:16.366Z,9
2023-02-02T09:46:16.406Z,12
2023-02-02T09:47:16.357Z,11
2023-02-02T09:48:16.344Z,12
2023-02-02T09:49:16.341Z,10
2023-02-02T09:50:16.343Z,10
2023-02-02T09:51:16.453Z,10
2023-02-02T09:52:16.350Z,10
2023-02-02T09:53:16.377Z,10
2023-02-02T09:55:16.374Z,10
2023-02-02T09:56:16.363Z,10
2023-02-02T09:58:16.327Z,10
2023-02-02T09:59:20.538Z,10
2023-02-02T10:00:16.336Z,10
2023-02-02T10:01:16.510Z,10
2023-02-02T10:03:16.346Z,10
2023-02-02T10:04:16.426Z,10
2023-02-02T10:05:16.395Z,11
2023-02-02T10:06:16.332Z,11
2023-02-02T10:07:16.340Z,11
2023-02-02T10:08:23.036Z,11
2023-02-02T10:10:17.193Z,11
2023-02-02T10:11:16.423Z,12
2023-02-02T10:12:16.352Z,12
2023-02-02T10:13:16.364Z,12
2023-02-02T10:14:16.344Z,11
2023-02-02T10:15:16.349Z,12
2023-02-02T10:16:16.372Z,11
2023-02-02T10:18:16.352Z,12
2023-02-02T10:19:16.339Z,10
2023-02-02T10:20:16.345Z,12
2023-02-02T10:21:16.342Z,10
2023-02-02T10:22:16.355Z,11
2023-02-02T10:24:16.342Z,10
2023-02-02T10:25:16.345Z,10
2023-02-02T10:26:16.340Z,10
2023-02-02T10:27:16.347Z,10
2023-02-02T10:28:16.334Z,10
2023-02-02T10:29:16.332Z,11
2023-02-02T10:30:16.345Z,10
2023-02-02T10:31:16.507Z,12
2023-02-02T10:32:16.353Z,20
2023-02-02T10:33:16.415Z,21
2023-02-02T10:34:16.373Z,11
2023-02-02T10:35:16.346Z,11
2023-02-02T10:36:16.347Z,21
2023-02-02T10:37:16.357Z,12
2023-02-02T10:38:16.332Z,11
2023-02-02T10:41:16.350Z,10
2023-02-02T10:42:16.339Z,9
2023-02-02T10:43:16.350Z,10
2023-02-02T10:44:16.338Z,10
2023-02-02T10:45:16.342Z,10
2023-02-02T10:46:16.385Z,10
2023-02-02T10:47:16.344Z,9
2023-02-02T10:48:16.356Z,9
2023-02-02T10:49:16.366Z,9
2023-02-02T10:52:16.338Z,9
2023-02-02T10:54:16.350Z,9
2023-02-02T10:55:16.342Z,8
2023-02-02T10:56:16.394Z,10
2023-02-02T10:57:16.345Z,8
2023-02-02T10:58:16.337Z,9
2023-02-02T10:59:16.345Z,8
2023-02-02T11:00:16.347Z,9
2023-02-02T11:01:16.362Z,10
2023-02-02T11:02:20.993Z,9
2023-02-02T11:03:16.375Z,9
2023-02-02T11:04:16.343Z,8
2023-02-02T11:05:16.352Z,10
2023-02-02T11:06:16.344Z,20
2023-02-02T11:07:16.336Z,14
2023-02-02T11:08:16.346Z,26
2023-02-02T11:09:16.351Z,10
2023-02-02T11:10:16.451Z,9
2023-02-02T11:11:16.349Z,9
2023-02-02T11:12:16.331Z,8
2023-02-02T11:13:16.348Z,9
2023-02-02T11:14:16.345Z,9
2023-02-02T11:15:16.349Z,9
2023-02-02T11:16:16.435Z,13
2023-02-02T11:17:16.404Z,11
2023-02-02T11:18:16.372Z,9
2023-02-02T11:19:16.368Z,9
2023-02-02T11:20:16.340Z,9
2023-02-02T11:21:16.346Z,8
2023-02-02T11:22:16.334Z,9
2023-02-02T11:23:16.364Z,8
2023-02-02T11:24:16.396Z,8
2023-02-02T11:25:16.344Z,7
2023-02-02T11:26:16.346Z,8
2023-02-02T11:27:16.372Z,9
2023-02-02T11:28:16.342Z,8
2023-02-02T11:29:16.343Z,8
2023-02-02T11:30:16.345Z,8
2023-02-02T11:31:16.487Z,8
2023-02-02T11:32:16.344Z,8
2023-02-02T11:33:16.349Z,9
2023-02-02T11:35:16.375Z,9
2023-02-02T11:36:16.346Z,12
2023-02-02T11:37:16.347Z,15
2023-02-02T11:38:16.377Z,9
2023-02-02T11:39:16.360Z,28
2023-02-02T11:40:16.343Z,11
2023-02-02T11:42:16.346Z,8
2023-02-02T11:44:16.347Z,9
2023-02-02T11:45:16.328Z,8
2023-02-02T11:46:16.399Z,8
2023-02-02T11:47:16.364Z,8
2023-02-02T11:48:16.344Z,7
2023-02-02T11:49:16.355Z,8
2023-02-02T11:50:16.333Z,8
2023-02-02T11:53:16.351Z,7
2023-02-02T11:54:16.351Z,8
2023-02-02T11:55:16.396Z,7
2023-02-02T11:56:16.348Z,7
2023-02-02T11:57:16.368Z,8
2023-02-02T11:58:16.346Z,7
2023-02-02T11:59:16.370Z,8
2023-02-02T12:00:16.353Z,7
2023-02-02T12:01:16.335Z,8
2023-02-02T12:02:16.413Z,8
2023-02-02T12:03:16.361Z,8
2023-02-02T12:04:16.403Z,7
2023-02-02T12:05:16.367Z,7
2023-02-02T12:06:16.338Z,7
2023-02-02T12:07:16.348Z,7
2023-02-02T12:08:16.352Z,8
2023-02-02T12:09:16.346Z,7
2023-02-02T12:10:16.351Z,7
2023-02-02T12:11:16.341Z,8
2023-02-02T12:12:16.351Z,7
2023-02-02T12:13:16.348Z,7
2023-02-02T12:14:16.344Z,8
2023-02-02T12:15:16.347Z,7
2023-02-02T12:17:16.329Z,7
2023-02-02T12:18:16.407Z,7
2023-02-02T12:19:16.357Z,7
2023-02-02T12:20:16.344Z,7
2023-02-02T12:22:16.352Z,8
2023-02-02T12:23:16.341Z,7
2023-02-02T12:25:16.333Z,7
2023-02-02T12:26:16.369Z,7
2023-02-02T12:27:16.381Z,7
2023-02-02T12:28:16.403Z,7
2023-02-02T12:29:16.339Z,8
2023-02-02T12:30:16.357Z,7
2023-02-02T12:31:16.483Z,8
2023-02-02T12:32:16.339Z,7
2023-02-02T12:33:16.350Z,7
2023-02-02T12:34:16.378Z,7
2023-02-02T12:35:16.349Z,7
2023-02-02T12:36:16.371Z,7
2023-02-02T12:37:16.354Z,7
2023-02-02T12:38:16.355Z,7
2023-02-02T12:39:16.358Z,7
2023-02-02T12:41:16.367Z,7
2023-02-02T12:42:16.363Z,8
2023-02-02T12:43:16.359Z,7
2023-02-02T12:44:16.342Z,8
2023-02-02T12:45:16.346Z,7
2023-02-02T12:46:16.437Z,7
2023-02-02T12:47:16.349Z,19
2023-02-02T12:48:16.415Z,11
2023-02-02T12:49:16.357Z,13
2023-02-02T12:50:16.352Z,11
2023-02-02T12:51:16.363Z,22
2023-02-02T12:52:16.368Z,9
2023-02-02T12:54:33.503Z,8
2023-02-02T12:55:16.419Z,8
2023-02-02T12:56:16.424Z,8
2023-02-02T12:58:16.360Z,8
2023-02-02T12:59:16.346Z,8
2023-02-02T13:00:16.366Z,7
2023-02-02T13:04:25.365Z,8
2023-02-02T13:06:55.615Z,8
2023-02-02T13:08:16.353Z,8
2023-02-02T13:09:17.821Z,9
2023-02-02T13:12:16.367Z,9
2023-02-02T13:13:16.382Z,8
2023-02-02T13:14:16.361Z,8
2023-02-02T13:15:16.364Z,9
2023-02-02T13:17:16.369Z,8
2023-02-02T13:18:16.344Z,8
2023-02-02T13:19:16.356Z,13
2023-02-02T13:20:16.372Z,12
2023-02-02T13:21:38.432Z,42
2023-02-02T13:22:16.340Z,9
2023-02-02T13:24:16.350Z,23
2023-02-02T13:25:16.359Z,11
2023-02-02T13:26:16.477Z,10
2023-02-02T13:28:16.359Z,8
2023-02-02T13:30:44.627Z,9
2023-02-02T13:35:24.884Z,8
2023-02-02T13:36:16.366Z,8
2023-02-02T13:37:17.176Z,9
2023-02-02T13:38:16.375Z,9
2023-02-02T13:39:16.370Z,8
2023-02-02T13:40:16.366Z,9
2023-02-02T13:41:16.364Z,8
2023-02-02T13:42:16.353Z,8
2023-02-02T13:43:16.360Z,8
2023-02-02T13:44:16.369Z,11
2023-02-02T13:45:16.353Z,10
2023-02-02T13:46:16.446Z,9
2023-02-02T13:47:16.351Z,8
2023-02-02T13:49:16.367Z,8
2023-02-02T13:50:16.351Z,8
2023-02-02T13:51:16.344Z,7
2023-02-02T13:52:16.353Z,7
2023-02-02T13:53:16.357Z,8
2023-02-02T13:54:16.370Z,9
2023-02-02T13:55:16.351Z,9
2023-02-02T13:56:16.353Z,8
2023-02-02T13:58:16.353Z,7
2023-02-02T14:07:16.358Z,7
2023-02-02T15:33:46.623Z,10
2023-02-02T15:37:47.442Z,10
2023-02-02T15:39:40.643Z,9
2023-02-02T15:53:48.987Z,9
2023-02-02T15:54:44.572Z,9
2023-02-02T16:02:48.533Z,10
2023-02-02T16:15:46.801Z,9
2023-02-02T16:20:47.377Z,10
2023-02-02T16:25:43.902Z,10
2023-02-02T16:28:49.190Z,11
2023-02-02T16:30:40.444Z,11
2023-02-02T16:33:45.719Z,10
2023-02-02T16:36:51.008Z,12
2023-02-02T16:38:42.182Z,23
2023-02-02T16:41:47.575Z,38
2023-02-02T16:46:43.995Z,15
2023-02-02T16:49:49.305Z,12
2023-02-02T16:51:40.489Z,14
2023-02-02T16:55:52.243Z,13
2023-02-02T16:57:42.908Z,13
2023-02-02T17:05:44.705Z,18
2023-02-02T17:08:50.020Z,19
2023-02-02T17:10:41.221Z,18
2023-02-02T17:13:46.514Z,20
2023-02-02T17:16:51.905Z,26
2023-02-02T17:18:43.043Z,112
2023-02-02T17:21:48.322Z,28
2023-02-02T17:26:44.840Z,18
2023-02-02T17:29:50.129Z,24
2023-02-02T17:31:41.448Z,17
2023-02-02T17:34:46.621Z,18
2023-02-02T17:39:43.168Z,18
2023-02-02T17:42:48.424Z,18
2023-02-02T17:47:44.964Z,16
2023-02-02T17:50:50.274Z,15
2023-02-02T17:58:43.843Z,15
2023-02-02T18:01:12.140Z,17
2023-02-02T18:07:02.067Z,13
2023-02-02T18:10:44.416Z,12
2023-02-02T18:13:49.722Z,11
2023-02-02T18:15:40.975Z,11
2023-02-02T18:20:00.441Z,10
2023-02-02T18:23:42.720Z,10
2023-02-02T18:31:44.721Z,10
2023-02-02T18:36:41.013Z,12
2023-02-02T18:47:48.134Z,13
2023-02-02T18:52:44.621Z,15
2023-02-02T18:55:49.947Z,14
2023-02-02T18:57:41.118Z,15
2023-02-02T19:00:46.421Z,16
2023-02-02T19:05:42.912Z,18
2023-02-02T19:08:11.161Z,18
2023-02-02T19:13:44.750Z,17
2023-02-02T19:17:47.779Z,18
2023-02-02T19:22:44.269Z,26
2023-02-02T19:25:51.430Z,30
2023-02-02T19:27:40.763Z,18
2023-02-02T19:30:46.131Z,19
2023-02-02T19:32:00.280Z,17
2023-02-02T19:33:51.402Z,18
2023-02-02T19:35:42.569Z,16
2023-02-02T19:38:47.917Z,20
2023-02-02T19:46:49.803Z,16
2023-02-02T19:59:10.909Z,15
2023-02-02T20:01:02.177Z,15
2023-02-02T20:04:44.548Z,17
2023-02-02T20:09:40.976Z,29
2023-02-02T20:12:46.281Z,18
2023-02-02T20:14:00.406Z,16
2023-02-02T20:22:22.892Z,16
2023-02-02T20:29:47.622Z,17
2023-02-02T20:34:44.128Z,17
2023-02-02T20:37:12.371Z,19
2023-02-02T20:39:40.627Z,18
2023-02-02T20:50:47.760Z,20
2023-02-02T20:55:44.232Z,22
2023-02-02T20:58:49.549Z,25
2023-02-02T21:05:00.180Z,18
2023-02-02T21:11:10.748Z,19
2023-02-02T21:11:47.841Z,20
2023-02-02T21:14:53.158Z,18
2023-02-02T21:17:50.273Z,17
2023-02-02T21:19:41.460Z,19
2023-02-02T21:27:43.254Z,18
2023-02-02T21:45:01.017Z,16
2023-02-02T21:49:57.486Z,17
2023-02-02T21:56:45.141Z,16
2023-02-02T21:59:50.464Z,17
2023-02-02T22:06:01.114Z,15
2023-02-02T22:10:20.522Z,15
2023-02-02T22:12:48.788Z,15
2023-02-02T22:14:39.968Z,15
2023-02-02T22:18:51.207Z,16
2023-02-02T22:20:42.386Z,16
2023-02-02T22:23:47.717Z,15
2023-02-02T22:31:12.550Z,14
2023-02-02T22:33:40.687Z,16
2023-02-02T22:49:44.303Z,16
2023-02-02T22:57:46.134Z,16
2023-02-02T23:02:42.669Z,16
2023-02-02T23:07:47.270Z,16
2023-02-02T23:12:43.766Z,18
2023-02-02T23:15:12.024Z,18
2023-02-02T23:17:40.262Z,17
2023-02-02T23:21:22.655Z,17
2023-02-02T23:31:44.546Z,17
2023-02-02T23:34:49.821Z,16
2023-02-02T23:36:40.995Z,17
2023-02-02T23:42:51.623Z,15
2023-02-02T23:44:42.813Z,15
2023-02-02T23:47:48.087Z,13
2023-02-02T23:52:44.610Z,16
2023-02-02T23:55:49.946Z,15
2023-02-02T23:57:41.114Z,15
